WZZ3YX LBBG-EPWA
Flight info
| Callsign | WZZ3YX |
|---|---|
| Flight time | N/A |
| Altitude | 38000 |
| Route | GONGO L622 KOMAN DCT KARIL DCT KENIN DCT LENOV DCT ORTEB DCT KONZI DCT LOGDA |
| Aircraft | A20N/M-SDE1E2E3FGIJ1J4RWXY/LB1 |
Departure
| Time | 2026-05-06 14:37 |
|---|---|
| Airport | Burgas Airport (LBBG) |
Arrival
| Time | N/A |
|---|---|
| Airport | Warsaw Chopin Airport (EPWA) |
| Time | Latitude | Longitude | Altitude | Speed | Heading |
|---|---|---|---|---|---|
| 2026-05-06 14:20 | 42.56776 | 27.51865 | 141 ft | 0 kts | 93° |
| 2026-05-06 14:30 | 42.56776 | 27.51863 | 141 ft | 1 kts | 93° |
| 2026-05-06 14:30 | 42.56776 | 27.51853 | 140 ft | 1 kts | 93° |
| 2026-05-06 14:30 | 42.56777 | 27.51843 | 140 ft | 1 kts | 93° |
| 2026-05-06 14:30 | 42.56777 | 27.51832 | 140 ft | 1 kts | 93° |
| 2026-05-06 14:31 | 42.56778 | 27.51822 | 140 ft | 1 kts | 95° |
| 2026-05-06 14:31 | 42.56779 | 27.51810 | 140 ft | 2 kts | 107° |
| 2026-05-06 14:31 | 42.56784 | 27.51791 | 140 ft | 2 kts | 128° |
| 2026-05-06 14:31 | 42.56795 | 27.51777 | 140 ft | 2 kts | 160° |
| 2026-05-06 14:32 | 42.56810 | 27.51774 | 140 ft | 2 kts | 202° |
| 2026-05-06 14:32 | 42.56816 | 27.51778 | 140 ft | 0 kts | 212° |
| 2026-05-06 14:33 | 42.56804 | 27.51767 | 140 ft | 5 kts | 216° |
| 2026-05-06 14:33 | 42.56742 | 27.51681 | 139 ft | 13 kts | 227° |
| 2026-05-06 14:33 | 42.56699 | 27.51614 | 138 ft | 15 kts | 230° |
| 2026-05-06 14:34 | 42.56622 | 27.51492 | 137 ft | 19 kts | 228° |
| 2026-05-06 14:34 | 42.56528 | 27.51349 | 136 ft | 22 kts | 229° |
| 2026-05-06 14:34 | 42.56422 | 27.51189 | 134 ft | 24 kts | 227° |
| 2026-05-06 14:34 | 42.56317 | 27.51031 | 132 ft | 21 kts | 231° |
| 2026-05-06 14:35 | 42.56213 | 27.50871 | 127 ft | 24 kts | 227° |
| 2026-05-06 14:35 | 42.56099 | 27.50697 | 125 ft | 25 kts | 228° |
| 2026-05-06 14:35 | 42.55986 | 27.50533 | 123 ft | 24 kts | 226° |
| 2026-05-06 14:35 | 42.55901 | 27.50398 | 121 ft | 15 kts | 230° |
| 2026-05-06 14:36 | 42.55908 | 27.50280 | 122 ft | 13 kts | 316° |
| 2026-05-06 14:36 | 42.55983 | 27.50197 | 119 ft | 11 kts | 334° |
| 2026-05-06 14:36 | 42.56046 | 27.50240 | 122 ft | 11 kts | 43° |
| 2026-05-06 14:36 | 42.56157 | 27.50388 | 121 ft | 51 kts | 44° |
| 2026-05-06 14:37 | 42.56576 | 27.50944 | 132 ft | 115 kts | 44° |
| 2026-05-06 14:37 | 42.57268 | 27.51867 | 217 ft | 156 kts | 47° |
| 2026-05-06 14:37 | 42.58084 | 27.52855 | 749 ft | 161 kts | 40° |
| 2026-05-06 14:37 | 42.59012 | 27.53708 | 1442 ft | 160 kts | 34° |
| 2026-05-06 14:38 | 42.59966 | 27.54481 | 2161 ft | 163 kts | 31° |
| 2026-05-06 14:38 | 42.60986 | 27.55298 | 2686 ft | 179 kts | 31° |
| 2026-05-06 14:38 | 42.62173 | 27.56066 | 3091 ft | 203 kts | 13° |
| 2026-05-06 14:38 | 42.63662 | 27.56059 | 3559 ft | 229 kts | 343° |
| 2026-05-06 14:39 | 42.65057 | 27.54967 | 4289 ft | 242 kts | 323° |
| 2026-05-06 14:39 | 42.66400 | 27.53460 | 4986 ft | 258 kts | 321° |
| 2026-05-06 14:39 | 42.67746 | 27.51856 | 5949 ft | 258 kts | 320° |
| 2026-05-06 14:39 | 42.69086 | 27.50258 | 7042 ft | 257 kts | 321° |
| 2026-05-06 14:40 | 42.70455 | 27.48654 | 7914 ft | 262 kts | 321° |
| 2026-05-06 14:40 | 42.71850 | 27.47045 | 8845 ft | 264 kts | 321° |
| 2026-05-06 14:40 | 42.73262 | 27.45428 | 9828 ft | 266 kts | 322° |
| 2026-05-06 14:40 | 42.74697 | 27.43786 | 10526 ft | 278 kts | 322° |
| 2026-05-06 14:41 | 42.76241 | 27.42022 | 10850 ft | 302 kts | 321° |
| 2026-05-06 14:41 | 42.77904 | 27.40119 | 11244 ft | 320 kts | 321° |
| 2026-05-06 14:41 | 42.79622 | 27.38145 | 11998 ft | 326 kts | 321° |
| 2026-05-06 14:41 | 42.81365 | 27.36139 | 12784 ft | 331 kts | 321° |
| 2026-05-06 14:42 | 42.83138 | 27.34100 | 13545 ft | 336 kts | 321° |
| 2026-05-06 14:42 | 42.84939 | 27.32027 | 14260 ft | 341 kts | 321° |
| 2026-05-06 14:42 | 42.86758 | 27.29933 | 15004 ft | 343 kts | 321° |
| 2026-05-06 14:42 | 42.88598 | 27.27812 | 15670 ft | 349 kts | 322° |
| 2026-05-06 14:43 | 42.90456 | 27.25670 | 16394 ft | 352 kts | 322° |
| 2026-05-06 14:43 | 42.92341 | 27.23494 | 17012 ft | 358 kts | 322° |
| 2026-05-06 14:43 | 42.94241 | 27.21299 | 17786 ft | 359 kts | 322° |
| 2026-05-06 14:43 | 42.96159 | 27.19081 | 18424 ft | 364 kts | 322° |
| 2026-05-06 14:44 | 42.98097 | 27.16840 | 19039 ft | 366 kts | 322° |
| 2026-05-06 14:44 | 43.00041 | 27.14589 | 19720 ft | 367 kts | 321° |
| 2026-05-06 14:44 | 43.01994 | 27.12325 | 20349 ft | 369 kts | 321° |
| 2026-05-06 14:45 | 43.05927 | 27.07760 | 21633 ft | 372 kts | 321° |
| 2026-05-06 14:45 | 43.07909 | 27.05457 | 22217 ft | 376 kts | 321° |
| 2026-05-06 14:45 | 43.09932 | 27.03169 | 22787 ft | 378 kts | 325° |
| 2026-05-06 14:45 | 43.12107 | 27.01141 | 23379 ft | 379 kts | 328° |
| 2026-05-06 14:46 | 43.14312 | 26.99139 | 23910 ft | 382 kts | 328° |
| 2026-05-06 14:46 | 43.16529 | 26.97113 | 24394 ft | 384 kts | 327° |
| 2026-05-06 14:46 | 43.18759 | 26.95071 | 24873 ft | 387 kts | 327° |
| 2026-05-06 14:46 | 43.21001 | 26.93016 | 25334 ft | 389 kts | 327° |
| 2026-05-06 14:47 | 43.23261 | 26.90958 | 25784 ft | 391 kts | 328° |
| 2026-05-06 14:47 | 43.25535 | 26.88893 | 26239 ft | 393 kts | 328° |
| 2026-05-06 14:47 | 43.27795 | 26.86840 | 26637 ft | 396 kts | 327° |
| 2026-05-06 14:47 | 43.30103 | 26.84741 | 27007 ft | 400 kts | 327° |
| 2026-05-06 14:48 | 43.32423 | 26.82626 | 27484 ft | 401 kts | 327° |
| 2026-05-06 14:48 | 43.34755 | 26.80497 | 27895 ft | 403 kts | 327° |
| 2026-05-06 14:48 | 43.37128 | 26.78330 | 28286 ft | 405 kts | 327° |
| 2026-05-06 14:48 | 43.39450 | 26.76206 | 28660 ft | 408 kts | 327° |
| 2026-05-06 14:49 | 43.41818 | 26.74039 | 29034 ft | 410 kts | 327° |
| 2026-05-06 14:49 | 43.44195 | 26.71860 | 29397 ft | 412 kts | 327° |
| 2026-05-06 14:49 | 43.46583 | 26.69671 | 29735 ft | 414 kts | 327° |
| 2026-05-06 14:49 | 43.48985 | 26.67465 | 30067 ft | 416 kts | 327° |
| 2026-05-06 14:50 | 43.51396 | 26.65250 | 30374 ft | 418 kts | 327° |
| 2026-05-06 14:50 | 43.53816 | 26.63024 | 30698 ft | 419 kts | 327° |
| 2026-05-06 14:50 | 43.56243 | 26.60790 | 31011 ft | 420 kts | 327° |
| 2026-05-06 14:50 | 43.58677 | 26.58547 | 31374 ft | 420 kts | 327° |
| 2026-05-06 14:51 | 43.61104 | 26.56308 | 31802 ft | 419 kts | 327° |
| 2026-05-06 14:51 | 43.63519 | 26.54077 | 32227 ft | 417 kts | 327° |
| 2026-05-06 14:51 | 43.65925 | 26.51853 | 32644 ft | 415 kts | 327° |
| 2026-05-06 14:51 | 43.68322 | 26.49635 | 33054 ft | 414 kts | 327° |
| 2026-05-06 14:52 | 43.70709 | 26.47424 | 33435 ft | 412 kts | 327° |
| 2026-05-06 14:52 | 43.73068 | 26.45238 | 34003 ft | 406 kts | 327° |
| 2026-05-06 14:52 | 43.75411 | 26.43063 | 34318 ft | 405 kts | 327° |
| 2026-05-06 14:52 | 43.77753 | 26.40888 | 34559 ft | 406 kts | 326° |
| 2026-05-06 14:53 | 43.80098 | 26.38707 | 34804 ft | 406 kts | 326° |
| 2026-05-06 14:53 | 43.82439 | 26.36528 | 35064 ft | 406 kts | 326° |
| 2026-05-06 14:53 | 43.84790 | 26.34338 | 35215 ft | 409 kts | 326° |
| 2026-05-06 14:53 | 43.87119 | 26.32166 | 35426 ft | 409 kts | 326° |
| 2026-05-06 14:54 | 43.89510 | 26.29934 | 35681 ft | 409 kts | 326° |
| 2026-05-06 14:54 | 43.91864 | 26.27734 | 35922 ft | 408 kts | 326° |
| 2026-05-06 14:54 | 43.94219 | 26.25532 | 36148 ft | 408 kts | 326° |
| 2026-05-06 14:54 | 43.96544 | 26.23355 | 36359 ft | 408 kts | 326° |
| 2026-05-06 14:55 | 43.98898 | 26.21151 | 36573 ft | 408 kts | 326° |
| 2026-05-06 14:55 | 44.01261 | 26.18970 | 36781 ft | 408 kts | 327° |
| 2026-05-06 14:55 | 44.03632 | 26.16809 | 36987 ft | 408 kts | 327° |
| 2026-05-06 14:55 | 44.06009 | 26.14647 | 37171 ft | 408 kts | 327° |
| 2026-05-06 14:56 | 44.08381 | 26.12487 | 37351 ft | 408 kts | 327° |
| 2026-05-06 14:56 | 44.10753 | 26.10322 | 37523 ft | 408 kts | 327° |
| 2026-05-06 14:56 | 44.13133 | 26.08146 | 37603 ft | 410 kts | 327° |
| 2026-05-06 14:56 | 44.15509 | 26.05970 | 37886 ft | 407 kts | 327° |
| 2026-05-06 14:57 | 44.17875 | 26.03802 | 38000 ft | 408 kts | 327° |
| 2026-05-06 14:57 | 44.22604 | 25.99458 | 37998 ft | 406 kts | 327° |
| 2026-05-06 14:58 | 44.27322 | 25.95114 | 38001 ft | 407 kts | 327° |
| 2026-05-06 14:58 | 44.32042 | 25.90759 | 37998 ft | 407 kts | 327° |
| 2026-05-06 14:59 | 44.36757 | 25.86399 | 38005 ft | 406 kts | 326° |
| 2026-05-06 14:59 | 44.41475 | 25.82028 | 37995 ft | 407 kts | 326° |
| 2026-05-06 15:00 | 44.46196 | 25.77647 | 37998 ft | 407 kts | 326° |
| 2026-05-06 15:00 | 44.50915 | 25.73257 | 38014 ft | 407 kts | 326° |
| 2026-05-06 15:01 | 44.55639 | 25.68855 | 38012 ft | 408 kts | 326° |
| 2026-05-06 15:01 | 44.60361 | 25.64446 | 38008 ft | 408 kts | 326° |
| 2026-05-06 15:02 | 44.65054 | 25.60055 | 38001 ft | 408 kts | 326° |
| 2026-05-06 15:02 | 44.69780 | 25.55624 | 38007 ft | 409 kts | 326° |
| 2026-05-06 15:03 | 44.74507 | 25.51185 | 38004 ft | 409 kts | 326° |
| 2026-05-06 15:03 | 44.79232 | 25.46738 | 37995 ft | 409 kts | 326° |
| 2026-05-06 15:04 | 44.83954 | 25.42284 | 38006 ft | 408 kts | 326° |
| 2026-05-06 15:04 | 44.88675 | 25.37822 | 38005 ft | 409 kts | 326° |
| 2026-05-06 15:05 | 44.93395 | 25.33353 | 38008 ft | 409 kts | 326° |
| 2026-05-06 15:05 | 44.98114 | 25.28876 | 38007 ft | 409 kts | 326° |
| 2026-05-06 15:06 | 45.02831 | 25.24392 | 38011 ft | 408 kts | 326° |
| 2026-05-06 15:06 | 45.07541 | 25.19905 | 38010 ft | 408 kts | 325° |
| 2026-05-06 15:07 | 45.12246 | 25.15413 | 38013 ft | 408 kts | 325° |
| 2026-05-06 15:07 | 45.16955 | 25.10909 | 38013 ft | 408 kts | 325° |
| 2026-05-06 15:08 | 45.21663 | 25.06396 | 38010 ft | 409 kts | 325° |
| 2026-05-06 15:08 | 45.26374 | 25.01873 | 38013 ft | 409 kts | 325° |
| 2026-05-06 15:09 | 45.31081 | 24.97343 | 38007 ft | 409 kts | 325° |
| 2026-05-06 15:09 | 45.35790 | 24.92801 | 38013 ft | 409 kts | 325° |
| 2026-05-06 15:10 | 45.40494 | 24.88255 | 38008 ft | 409 kts | 325° |
| 2026-05-06 15:10 | 45.45203 | 24.83695 | 38014 ft | 410 kts | 325° |
| 2026-05-06 15:11 | 45.49916 | 24.79124 | 37995 ft | 410 kts | 324° |
| 2026-05-06 15:11 | 45.54629 | 24.74541 | 37994 ft | 410 kts | 324° |
| 2026-05-06 15:12 | 45.59343 | 24.69948 | 37978 ft | 410 kts | 324° |
| 2026-05-06 15:12 | 45.64059 | 24.65343 | 37966 ft | 410 kts | 324° |
| 2026-05-06 15:13 | 45.68773 | 24.60731 | 37957 ft | 411 kts | 324° |
| 2026-05-06 15:13 | 45.73496 | 24.56102 | 37968 ft | 412 kts | 324° |
| 2026-05-06 15:14 | 45.78193 | 24.51486 | 37960 ft | 412 kts | 324° |
| 2026-05-06 15:14 | 45.82917 | 24.46835 | 37941 ft | 412 kts | 324° |
| 2026-05-06 15:15 | 45.87645 | 24.42171 | 37945 ft | 412 kts | 324° |
| 2026-05-06 15:15 | 45.92372 | 24.37499 | 37925 ft | 413 kts | 323° |
| 2026-05-06 15:16 | 45.97099 | 24.32816 | 37933 ft | 413 kts | 323° |
| 2026-05-06 15:16 | 46.01828 | 24.28121 | 37935 ft | 413 kts | 323° |
| 2026-05-06 15:17 | 46.06558 | 24.23414 | 37932 ft | 414 kts | 323° |
| 2026-05-06 15:17 | 46.11289 | 24.18697 | 37932 ft | 414 kts | 323° |
| 2026-05-06 15:18 | 46.16022 | 24.13969 | 37924 ft | 414 kts | 323° |
| 2026-05-06 15:18 | 46.20755 | 24.09229 | 37922 ft | 414 kts | 323° |
| 2026-05-06 15:19 | 46.25484 | 24.04484 | 37921 ft | 414 kts | 323° |
| 2026-05-06 15:19 | 46.30209 | 23.99733 | 37916 ft | 414 kts | 323° |
| 2026-05-06 15:20 | 46.34929 | 23.94977 | 37912 ft | 413 kts | 323° |
| 2026-05-06 15:20 | 46.39648 | 23.90213 | 37913 ft | 414 kts | 323° |
| 2026-05-06 15:21 | 46.44333 | 23.85470 | 37914 ft | 413 kts | 323° |
| 2026-05-06 15:21 | 46.49043 | 23.80692 | 37916 ft | 413 kts | 323° |
| 2026-05-06 15:22 | 46.53752 | 23.75906 | 37914 ft | 413 kts | 323° |
| 2026-05-06 15:22 | 46.57695 | 23.71890 | 37901 ft | 413 kts | 323° |
| 2026-05-06 15:23 | 46.62398 | 23.67092 | 37902 ft | 413 kts | 322° |
| 2026-05-06 15:23 | 46.67069 | 23.62314 | 37908 ft | 413 kts | 322° |
| 2026-05-06 15:24 | 46.71768 | 23.57498 | 37902 ft | 413 kts | 322° |
| 2026-05-06 15:24 | 46.76473 | 23.52665 | 37909 ft | 414 kts | 322° |
| 2026-05-06 15:25 | 46.81175 | 23.47825 | 37914 ft | 414 kts | 322° |
| 2026-05-06 15:25 | 46.85883 | 23.42970 | 37943 ft | 414 kts | 322° |
| 2026-05-06 15:26 | 46.90594 | 23.38097 | 37923 ft | 415 kts | 322° |
| 2026-05-06 15:26 | 46.95308 | 23.33213 | 37930 ft | 415 kts | 322° |
| 2026-05-06 15:27 | 47.00027 | 23.28313 | 37924 ft | 416 kts | 322° |
| 2026-05-06 15:27 | 47.04747 | 23.23400 | 37926 ft | 416 kts | 322° |
| 2026-05-06 15:28 | 47.09469 | 23.18477 | 37941 ft | 417 kts | 322° |
| 2026-05-06 15:28 | 47.14188 | 23.13543 | 37939 ft | 417 kts | 322° |
| 2026-05-06 15:29 | 47.18887 | 23.08618 | 37923 ft | 418 kts | 322° |
| 2026-05-06 15:29 | 47.23619 | 23.03650 | 37929 ft | 418 kts | 322° |
| 2026-05-06 15:30 | 47.28352 | 22.98670 | 37935 ft | 418 kts | 322° |
| 2026-05-06 15:30 | 47.33087 | 22.93679 | 37952 ft | 419 kts | 321° |
| 2026-05-06 15:31 | 47.37821 | 22.88673 | 37946 ft | 419 kts | 321° |
| 2026-05-06 15:31 | 47.42548 | 22.83663 | 37940 ft | 418 kts | 321° |
| 2026-05-06 15:32 | 47.49643 | 22.76123 | 37924 ft | 419 kts | 322° |
| 2026-05-06 15:32 | 47.54371 | 22.71086 | 37931 ft | 419 kts | 321° |
| 2026-05-06 15:33 | 47.59094 | 22.66044 | 37931 ft | 419 kts | 321° |
| 2026-05-06 15:33 | 47.63818 | 22.60986 | 37930 ft | 419 kts | 321° |